sensor_id;sensor_type;location;lat;lon;timestamp;temperature;humidity
66271;DHT22;53063;39.614;8.814;2023-08-21T00:01:06;26.30;67.20
66271;DHT22;53063;39.614;8.814;2023-08-21T00:03:32;26.10;68.40
66271;DHT22;53063;39.614;8.814;2023-08-21T00:05:59;25.90;68.70
66271;DHT22;53063;39.614;8.814;2023-08-21T00:08:25;25.90;69.30
66271;DHT22;53063;39.614;8.814;2023-08-21T00:10:51;26.00;69.10
66271;DHT22;53063;39.614;8.814;2023-08-21T00:13:17;26.00;69.10
66271;DHT22;53063;39.614;8.814;2023-08-21T00:15:42;25.90;69.40
66271;DHT22;53063;39.614;8.814;2023-08-21T00:18:08;25.80;69.70
66271;DHT22;53063;39.614;8.814;2023-08-21T00:20:34;25.70;69.20
66271;DHT22;53063;39.614;8.814;2023-08-21T00:23:00;25.60;69.20
66271;DHT22;53063;39.614;8.814;2023-08-21T00:25:26;25.50;68.80
66271;DHT22;53063;39.614;8.814;2023-08-21T00:27:52;25.50;69.10
66271;DHT22;53063;39.614;8.814;2023-08-21T00:30:18;25.40;69.60
66271;DHT22;53063;39.614;8.814;2023-08-21T00:32:44;25.40;69.70
66271;DHT22;53063;39.614;8.814;2023-08-21T00:35:09;25.40;69.90
66271;DHT22;53063;39.614;8.814;2023-08-21T00:37:35;25.50;69.60
66271;DHT22;53063;39.614;8.814;2023-08-21T00:40:01;25.60;69.50
66271;DHT22;53063;39.614;8.814;2023-08-21T00:42:27;25.60;69.60
66271;DHT22;53063;39.614;8.814;2023-08-21T00:44:53;25.60;69.00
66271;DHT22;53063;39.614;8.814;2023-08-21T00:47:19;25.60;69.10
66271;DHT22;53063;39.614;8.814;2023-08-21T00:49:46;25.60;69.00
66271;DHT22;53063;39.614;8.814;2023-08-21T00:52:12;25.50;69.50
66271;DHT22;53063;39.614;8.814;2023-08-21T00:54:40;25.40;69.50
66271;DHT22;53063;39.614;8.814;2023-08-21T00:57:06;25.40;69.60
66271;DHT22;53063;39.614;8.814;2023-08-21T00:59:32;25.60;68.90
66271;DHT22;53063;39.614;8.814;2023-08-21T01:01:58;25.70;68.00
66271;DHT22;53063;39.614;8.814;2023-08-21T01:04:24;25.60;68.20
66271;DHT22;53063;39.614;8.814;2023-08-21T01:06:50;25.60;68.70
66271;DHT22;53063;39.614;8.814;2023-08-21T01:09:27;25.60;68.60
66271;DHT22;53063;39.614;8.814;2023-08-21T01:14:33;25.80;68.00
66271;DHT22;53063;39.614;8.814;2023-08-21T01:17:03;25.70;68.10
66271;DHT22;53063;39.614;8.814;2023-08-21T01:19:48;25.60;68.90
66271;DHT22;53063;39.614;8.814;2023-08-21T01:22:15;25.30;70.10
66271;DHT22;53063;39.614;8.814;2023-08-21T01:24:41;25.00;70.90
66271;DHT22;53063;39.614;8.814;2023-08-21T01:27:07;24.60;72.40
66271;DHT22;53063;39.614;8.814;2023-08-21T01:29:33;24.60;73.00
66271;DHT22;53063;39.614;8.814;2023-08-21T01:32:21;24.70;73.10
66271;DHT22;53063;39.614;8.814;2023-08-21T01:34:50;24.90;72.70
66271;DHT22;53063;39.614;8.814;2023-08-21T01:37:17;25.00;72.10
66271;DHT22;53063;39.614;8.814;2023-08-21T01:39:43;24.80;72.50
66271;DHT22;53063;39.614;8.814;2023-08-21T01:42:09;24.70;73.00
66271;DHT22;53063;39.614;8.814;2023-08-21T01:44:35;24.60;73.30
66271;DHT22;53063;39.614;8.814;2023-08-21T01:47:02;24.60;73.20
66271;DHT22;53063;39.614;8.814;2023-08-21T01:49:28;24.40;73.00
66271;DHT22;53063;39.614;8.814;2023-08-21T01:51:54;24.40;74.50
66271;DHT22;53063;39.614;8.814;2023-08-21T01:54:20;24.60;74.60
66271;DHT22;53063;39.614;8.814;2023-08-21T01:56:46;24.90;74.40
66271;DHT22;53063;39.614;8.814;2023-08-21T01:59:12;24.80;74.60
66271;DHT22;53063;39.614;8.814;2023-08-21T02:01:38;24.60;75.20
66271;DHT22;53063;39.614;8.814;2023-08-21T02:04:04;24.60;75.60
66271;DHT22;53063;39.614;8.814;2023-08-21T02:06:30;24.60;75.80
66271;DHT22;53063;39.614;8.814;2023-08-21T02:08:56;24.60;75.10
66271;DHT22;53063;39.614;8.814;2023-08-21T02:11:22;24.60;75.20
66271;DHT22;53063;39.614;8.814;2023-08-21T02:13:50;24.40;75.20
66271;DHT22;53063;39.614;8.814;2023-08-21T02:16:16;24.40;75.20
66271;DHT22;53063;39.614;8.814;2023-08-21T02:18:42;24.60;74.80
66271;DHT22;53063;39.614;8.814;2023-08-21T02:21:08;24.70;74.80
66271;DHT22;53063;39.614;8.814;2023-08-21T02:23:33;24.70;75.00
66271;DHT22;53063;39.614;8.814;2023-08-21T02:25:59;24.60;74.70
66271;DHT22;53063;39.614;8.814;2023-08-21T02:28:25;24.80;74.00
66271;DHT22;53063;39.614;8.814;2023-08-21T02:30:51;25.00;72.10
66271;DHT22;53063;39.614;8.814;2023-08-21T02:33:17;25.00;71.70
66271;DHT22;53063;39.614;8.814;2023-08-21T02:35:43;24.90;71.80
66271;DHT22;53063;39.614;8.814;2023-08-21T02:38:09;24.80;72.10
66271;DHT22;53063;39.614;8.814;2023-08-21T02:40:35;24.70;73.20
66271;DHT22;53063;39.614;8.814;2023-08-21T02:43:01;24.50;74.20
66271;DHT22;53063;39.614;8.814;2023-08-21T02:45:27;24.30;74.90
66271;DHT22;53063;39.614;8.814;2023-08-21T02:47:53;24.20;75.80
66271;DHT22;53063;39.614;8.814;2023-08-21T02:50:19;24.10;76.40
66271;DHT22;53063;39.614;8.814;2023-08-21T02:52:46;24.10;76.60
66271;DHT22;53063;39.614;8.814;2023-08-21T02:55:12;24.10;76.40
66271;DHT22;53063;39.614;8.814;2023-08-21T02:57:39;24.30;75.70
66271;DHT22;53063;39.614;8.814;2023-08-21T03:00:06;24.50;75.00
66271;DHT22;53063;39.614;8.814;2023-08-21T03:02:34;24.50;74.10
66271;DHT22;53063;39.614;8.814;2023-08-21T03:05:00;24.50;74.00
66271;DHT22;53063;39.614;8.814;2023-08-21T03:07:26;24.50;74.20
66271;DHT22;53063;39.614;8.814;2023-08-21T03:09:53;24.50;73.90
66271;DHT22;53063;39.614;8.814;2023-08-21T03:12:19;24.60;73.70
66271;DHT22;53063;39.614;8.814;2023-08-21T03:14:46;24.70;74.00
66271;DHT22;53063;39.614;8.814;2023-08-21T03:17:12;24.70;73.50
66271;DHT22;53063;39.614;8.814;2023-08-21T03:19:38;24.60;73.40
66271;DHT22;53063;39.614;8.814;2023-08-21T03:22:04;24.70;73.00
66271;DHT22;53063;39.614;8.814;2023-08-21T03:24:31;24.70;73.30
66271;DHT22;53063;39.614;8.814;2023-08-21T03:26:57;24.60;73.10
66271;DHT22;53063;39.614;8.814;2023-08-21T03:29:23;24.50;73.30
66271;DHT22;53063;39.614;8.814;2023-08-21T03:31:50;24.40;73.60
66271;DHT22;53063;39.614;8.814;2023-08-21T03:34:16;24.30;74.40
66271;DHT22;53063;39.614;8.814;2023-08-21T03:36:42;24.30;74.80
66271;DHT22;53063;39.614;8.814;2023-08-21T03:39:09;24.20;75.30
66271;DHT22;53063;39.614;8.814;2023-08-21T03:41:39;24.20;75.80
66271;DHT22;53063;39.614;8.814;2023-08-21T03:44:05;24.10;76.20
66271;DHT22;53063;39.614;8.814;2023-08-21T03:46:31;23.90;76.60
66271;DHT22;53063;39.614;8.814;2023-08-21T03:48:58;23.70;77.30
66271;DHT22;53063;39.614;8.814;2023-08-21T03:51:25;23.60;77.90
66271;DHT22;53063;39.614;8.814;2023-08-21T03:53:51;23.50;78.30
66271;DHT22;53063;39.614;8.814;2023-08-21T03:56:17;23.40;78.80
66271;DHT22;53063;39.614;8.814;2023-08-21T03:58:45;23.40;79.50
66271;DHT22;53063;39.614;8.814;2023-08-21T04:01:11;23.50;80.10
66271;DHT22;53063;39.614;8.814;2023-08-21T04:03:37;23.60;80.20
66271;DHT22;53063;39.614;8.814;2023-08-21T04:06:02;23.70;79.90
66271;DHT22;53063;39.614;8.814;2023-08-21T04:08:28;23.80;79.60
66271;DHT22;53063;39.614;8.814;2023-08-21T04:10:54;23.80;79.60
66271;DHT22;53063;39.614;8.814;2023-08-21T04:13:25;23.70;80.30
66271;DHT22;53063;39.614;8.814;2023-08-21T04:15:54;23.80;80.10
66271;DHT22;53063;39.614;8.814;2023-08-21T04:18:21;23.70;80.10
66271;DHT22;53063;39.614;8.814;2023-08-21T04:20:50;23.60;79.90
66271;DHT22;53063;39.614;8.814;2023-08-21T04:23:16;23.40;80.20
66271;DHT22;53063;39.614;8.814;2023-08-21T04:25:42;23.40;80.30
66271;DHT22;53063;39.614;8.814;2023-08-21T04:28:09;23.40;80.60
66271;DHT22;53063;39.614;8.814;2023-08-21T04:30:35;23.30;80.60
66271;DHT22;53063;39.614;8.814;2023-08-21T04:33:01;23.30;80.70
66271;DHT22;53063;39.614;8.814;2023-08-21T04:35:28;23.50;80.40
66271;DHT22;53063;39.614;8.814;2023-08-21T04:37:55;23.50;80.10
66271;DHT22;53063;39.614;8.814;2023-08-21T04:40:24;23.60;79.70
66271;DHT22;53063;39.614;8.814;2023-08-21T04:42:50;23.70;79.40
66271;DHT22;53063;39.614;8.814;2023-08-21T04:45:18;23.70;79.00
66271;DHT22;53063;39.614;8.814;2023-08-21T04:47:44;23.70;79.10
66271;DHT22;53063;39.614;8.814;2023-08-21T04:50:11;23.60;79.30
66271;DHT22;53063;39.614;8.814;2023-08-21T04:52:37;23.60;79.70
66271;DHT22;53063;39.614;8.814;2023-08-21T04:55:04;23.70;78.70
66271;DHT22;53063;39.614;8.814;2023-08-21T04:57:32;23.70;77.40
66271;DHT22;53063;39.614;8.814;2023-08-21T04:59:58;23.90;76.90
66271;DHT22;53063;39.614;8.814;2023-08-21T05:02:30;23.90;76.70
66271;DHT22;53063;39.614;8.814;2023-08-21T05:04:58;24.00;76.20
66271;DHT22;53063;39.614;8.814;2023-08-21T05:07:24;24.10;75.50
66271;DHT22;53063;39.614;8.814;2023-08-21T05:09:50;24.30;74.80
66271;DHT22;53063;39.614;8.814;2023-08-21T05:12:18;24.20;75.30
66271;DHT22;53063;39.614;8.814;2023-08-21T05:14:44;24.20;75.40
66271;DHT22;53063;39.614;8.814;2023-08-21T05:17:13;24.30;75.50
66271;DHT22;53063;39.614;8.814;2023-08-21T05:19:39;24.30;75.70
66271;DHT22;53063;39.614;8.814;2023-08-21T05:22:05;24.30;75.90
66271;DHT22;53063;39.614;8.814;2023-08-21T05:24:32;24.30;76.00
66271;DHT22;53063;39.614;8.814;2023-08-21T05:27:02;24.40;76.00
66271;DHT22;53063;39.614;8.814;2023-08-21T05:29:30;24.30;75.80
66271;DHT22;53063;39.614;8.814;2023-08-21T05:31:56;24.20;75.40
66271;DHT22;53063;39.614;8.814;2023-08-21T05:34:22;24.20;75.70
66271;DHT22;53063;39.614;8.814;2023-08-21T05:36:48;24.20;75.70
66271;DHT22;53063;39.614;8.814;2023-08-21T05:39:14;24.30;74.90
66271;DHT22;53063;39.614;8.814;2023-08-21T05:41:40;24.60;73.30
66271;DHT22;53063;39.614;8.814;2023-08-21T05:44:06;24.70;72.20
66271;DHT22;53063;39.614;8.814;2023-08-21T05:46:32;24.90;71.90
66271;DHT22;53063;39.614;8.814;2023-08-21T05:48:58;24.90;71.70
66271;DHT22;53063;39.614;8.814;2023-08-21T05:51:24;24.90;72.00
66271;DHT22;53063;39.614;8.814;2023-08-21T05:53:50;24.80;71.50
66271;DHT22;53063;39.614;8.814;2023-08-21T05:56:16;24.90;71.40
66271;DHT22;53063;39.614;8.814;2023-08-21T05:58:42;24.90;71.30
66271;DHT22;53063;39.614;8.814;2023-08-21T06:01:07;25.10;71.60
66271;DHT22;53063;39.614;8.814;2023-08-21T06:03:34;25.80;68.90
66271;DHT22;53063;39.614;8.814;2023-08-21T06:06:16;26.20;67.60
66271;DHT22;53063;39.614;8.814;2023-08-21T06:08:42;26.70;66.70
66271;DHT22;53063;39.614;8.814;2023-08-21T06:11:07;27.40;64.00
66271;DHT22;53063;39.614;8.814;2023-08-21T06:13:33;27.90;62.00
66271;DHT22;53063;39.614;8.814;2023-08-21T06:16:00;28.40;60.60
66271;DHT22;53063;39.614;8.814;2023-08-21T06:18:27;28.20;59.80
66271;DHT22;53063;39.614;8.814;2023-08-21T06:20:54;27.20;64.00
66271;DHT22;53063;39.614;8.814;2023-08-21T06:23:21;26.80;64.30
66271;DHT22;53063;39.614;8.814;2023-08-21T06:25:50;26.60;66.60
66271;DHT22;53063;39.614;8.814;2023-08-21T06:28:17;26.60;65.30
66271;DHT22;53063;39.614;8.814;2023-08-21T06:30:44;27.00;66.30
66271;DHT22;53063;39.614;8.814;2023-08-21T06:33:10;27.40;64.10
66271;DHT22;53063;39.614;8.814;2023-08-21T06:35:37;27.90;62.50
66271;DHT22;53063;39.614;8.814;2023-08-21T06:38:03;27.90;62.60
66271;DHT22;53063;39.614;8.814;2023-08-21T06:40:30;27.90;57.90
66271;DHT22;53063;39.614;8.814;2023-08-21T06:42:56;28.10;57.80
66271;DHT22;53063;39.614;8.814;2023-08-21T06:45:26;28.00;56.20
66271;DHT22;53063;39.614;8.814;2023-08-21T06:47:57;28.00;55.50
66271;DHT22;53063;39.614;8.814;2023-08-21T06:50:23;28.10;56.20
66271;DHT22;53063;39.614;8.814;2023-08-21T06:52:49;28.20;55.50
66271;DHT22;53063;39.614;8.814;2023-08-21T06:55:15;28.30;55.80
66271;DHT22;53063;39.614;8.814;2023-08-21T06:57:40;28.20;56.00
66271;DHT22;53063;39.614;8.814;2023-08-21T07:00:07;28.10;58.50
66271;DHT22;53063;39.614;8.814;2023-08-21T07:02:33;28.10;59.50
66271;DHT22;53063;39.614;8.814;2023-08-21T07:04:59;28.50;60.00
66271;DHT22;53063;39.614;8.814;2023-08-21T07:07:25;28.50;59.30
66271;DHT22;53063;39.614;8.814;2023-08-21T07:09:51;28.50;59.30
66271;DHT22;53063;39.614;8.814;2023-08-21T07:12:17;28.50;59.40
66271;DHT22;53063;39.614;8.814;2023-08-21T07:14:42;28.70;57.60
66271;DHT22;53063;39.614;8.814;2023-08-21T07:17:08;28.70;58.10
66271;DHT22;53063;39.614;8.814;2023-08-21T07:19:34;28.90;58.80
66271;DHT22;53063;39.614;8.814;2023-08-21T07:22:00;29.00;57.70
66271;DHT22;53063;39.614;8.814;2023-08-21T07:24:26;29.20;57.80
66271;DHT22;53063;39.614;8.814;2023-08-21T07:26:52;29.10;56.40
66271;DHT22;53063;39.614;8.814;2023-08-21T07:29:18;29.30;55.50
66271;DHT22;53063;39.614;8.814;2023-08-21T07:31:44;29.70;55.10
66271;DHT22;53063;39.614;8.814;2023-08-21T07:34:10;29.80;54.20
66271;DHT22;53063;39.614;8.814;2023-08-21T07:36:35;29.80;53.60
66271;DHT22;53063;39.614;8.814;2023-08-21T07:39:02;29.80;54.20
66271;DHT22;53063;39.614;8.814;2023-08-21T07:41:28;30.00;58.40
66271;DHT22;53063;39.614;8.814;2023-08-21T07:43:54;29.90;52.40
66271;DHT22;53063;39.614;8.814;2023-08-21T07:46:20;30.30;50.40
66271;DHT22;53063;39.614;8.814;2023-08-21T07:48:46;30.30;52.50
66271;DHT22;53063;39.614;8.814;2023-08-21T07:51:12;30.50;52.30
66271;DHT22;53063;39.614;8.814;2023-08-21T07:53:38;30.70;51.80
66271;DHT22;53063;39.614;8.814;2023-08-21T07:56:04;30.80;50.30
66271;DHT22;53063;39.614;8.814;2023-08-21T07:58:32;30.90;52.00
66271;DHT22;53063;39.614;8.814;2023-08-21T08:00:58;30.90;52.00
66271;DHT22;53063;39.614;8.814;2023-08-21T08:03:24;31.30;50.60
66271;DHT22;53063;39.614;8.814;2023-08-21T08:05:51;31.10;51.00
66271;DHT22;53063;39.614;8.814;2023-08-21T08:08:17;31.10;50.30
66271;DHT22;53063;39.614;8.814;2023-08-21T08:10:43;31.30;48.80
66271;DHT22;53063;39.614;8.814;2023-08-21T08:13:09;31.60;49.00
66271;DHT22;53063;39.614;8.814;2023-08-21T08:15:36;31.70;48.10
66271;DHT22;53063;39.614;8.814;2023-08-21T08:18:03;31.90;49.20
66271;DHT22;53063;39.614;8.814;2023-08-21T08:20:29;32.00;50.90
66271;DHT22;53063;39.614;8.814;2023-08-21T08:22:55;32.00;49.10
66271;DHT22;53063;39.614;8.814;2023-08-21T08:25:22;31.80;48.20
66271;DHT22;53063;39.614;8.814;2023-08-21T08:27:48;32.20;48.60
66271;DHT22;53063;39.614;8.814;2023-08-21T08:30:14;32.20;47.90
66271;DHT22;53063;39.614;8.814;2023-08-21T08:32:42;32.30;47.30
66271;DHT22;53063;39.614;8.814;2023-08-21T08:35:12;32.40;46.80
66271;DHT22;53063;39.614;8.814;2023-08-21T08:37:39;32.60;48.70
66271;DHT22;53063;39.614;8.814;2023-08-21T08:40:05;32.80;46.40
66271;DHT22;53063;39.614;8.814;2023-08-21T08:42:32;32.90;45.40
66271;DHT22;53063;39.614;8.814;2023-08-21T08:45:00;33.00;45.60
66271;DHT22;53063;39.614;8.814;2023-08-21T08:47:31;33.00;45.10
66271;DHT22;53063;39.614;8.814;2023-08-21T08:49:58;33.30;44.60
66271;DHT22;53063;39.614;8.814;2023-08-21T08:52:26;33.20;43.40
66271;DHT22;53063;39.614;8.814;2023-08-21T08:54:55;33.40;42.80
66271;DHT22;53063;39.614;8.814;2023-08-21T08:57:21;33.60;45.10
66271;DHT22;53063;39.614;8.814;2023-08-21T08:59:47;33.90;43.30
66271;DHT22;53063;39.614;8.814;2023-08-21T09:02:13;33.80;41.60
66271;DHT22;53063;39.614;8.814;2023-08-21T09:04:39;34.20;40.60
66271;DHT22;53063;39.614;8.814;2023-08-21T09:07:10;34.20;39.80
66271;DHT22;53063;39.614;8.814;2023-08-21T09:09:46;34.50;40.00
66271;DHT22;53063;39.614;8.814;2023-08-21T09:12:13;34.40;39.70
66271;DHT22;53063;39.614;8.814;2023-08-21T09:14:40;34.40;41.00
66271;DHT22;53063;39.614;8.814;2023-08-21T09:17:07;34.90;41.10
66271;DHT22;53063;39.614;8.814;2023-08-21T09:19:33;34.90;40.80
66271;DHT22;53063;39.614;8.814;2023-08-21T09:22:06;35.20;40.00
66271;DHT22;53063;39.614;8.814;2023-08-21T09:24:33;35.20;38.60
66271;DHT22;53063;39.614;8.814;2023-08-21T09:26:59;35.50;38.40
66271;DHT22;53063;39.614;8.814;2023-08-21T09:29:28;35.30;38.40
66271;DHT22;53063;39.614;8.814;2023-08-21T09:32:03;35.00;38.10
66271;DHT22;53063;39.614;8.814;2023-08-21T09:34:34;35.30;38.10
66271;DHT22;53063;39.614;8.814;2023-08-21T09:37:05;35.50;36.40
66271;DHT22;53063;39.614;8.814;2023-08-21T09:39:36;35.60;36.90
66271;DHT22;53063;39.614;8.814;2023-08-21T09:42:08;35.90;36.00
66271;DHT22;53063;39.614;8.814;2023-08-21T09:44:39;36.00;36.80
66271;DHT22;53063;39.614;8.814;2023-08-21T09:47:08;36.00;36.00
66271;DHT22;53063;39.614;8.814;2023-08-21T09:49:35;36.00;34.40
66271;DHT22;53063;39.614;8.814;2023-08-21T09:52:04;36.10;34.30
66271;DHT22;53063;39.614;8.814;2023-08-21T09:54:32;36.80;32.90
66271;DHT22;53063;39.614;8.814;2023-08-21T09:57:02;36.60;33.50
66271;DHT22;53063;39.614;8.814;2023-08-21T09:59:29;36.70;33.10
66271;DHT22;53063;39.614;8.814;2023-08-21T10:01:55;36.40;34.40
66271;DHT22;53063;39.614;8.814;2023-08-21T10:04:23;36.20;33.90
66271;DHT22;53063;39.614;8.814;2023-08-21T10:06:52;36.20;34.20
66271;DHT22;53063;39.614;8.814;2023-08-21T10:09:21;37.00;33.00
66271;DHT22;53063;39.614;8.814;2023-08-21T10:11:48;37.30;32.50
66271;DHT22;53063;39.614;8.814;2023-08-21T10:14:15;37.00;32.00
66271;DHT22;53063;39.614;8.814;2023-08-21T10:16:41;37.20;32.70
66271;DHT22;53063;39.614;8.814;2023-08-21T10:19:07;38.00;32.40
66271;DHT22;53063;39.614;8.814;2023-08-21T10:21:37;37.60;32.30
66271;DHT22;53063;39.614;8.814;2023-08-21T10:24:03;38.20;31.90
66271;DHT22;53063;39.614;8.814;2023-08-21T10:26:29;37.60;30.70
66271;DHT22;53063;39.614;8.814;2023-08-21T10:28:59;37.80;31.80
66271;DHT22;53063;39.614;8.814;2023-08-21T10:31:32;38.20;31.10
66271;DHT22;53063;39.614;8.814;2023-08-21T10:33:59;38.50;30.80
66271;DHT22;53063;39.614;8.814;2023-08-21T10:39:20;38.30;32.50
66271;DHT22;53063;39.614;8.814;2023-08-21T10:50:10;37.80;31.00
66271;DHT22;53063;39.614;8.814;2023-08-21T10:52:41;38.00;30.70
66271;DHT22;53063;39.614;8.814;2023-08-21T10:55:09;38.40;30.80
66271;DHT22;53063;39.614;8.814;2023-08-21T10:57:36;38.10;30.40
66271;DHT22;53063;39.614;8.814;2023-08-21T11:00:07;38.00;31.90
66271;DHT22;53063;39.614;8.814;2023-08-21T11:02:43;38.70;32.20
66271;DHT22;53063;39.614;8.814;2023-08-21T11:05:10;38.80;31.60
66271;DHT22;53063;39.614;8.814;2023-08-21T11:07:41;38.60;31.30
66271;DHT22;53063;39.614;8.814;2023-08-21T11:10:23;38.30;30.80
66271;DHT22;53063;39.614;8.814;2023-08-21T11:12:54;38.20;32.00
66271;DHT22;53063;39.614;8.814;2023-08-21T11:15:25;39.20;30.50
66271;DHT22;53063;39.614;8.814;2023-08-21T11:18:02;39.40;29.80
66271;DHT22;53063;39.614;8.814;2023-08-21T11:20:32;39.60;29.80
66271;DHT22;53063;39.614;8.814;2023-08-21T11:22:59;39.50;28.80
66271;DHT22;53063;39.614;8.814;2023-08-21T11:25:29;39.30;29.60
66271;DHT22;53063;39.614;8.814;2023-08-21T11:27:55;40.10;30.10
66271;DHT22;53063;39.614;8.814;2023-08-21T11:30:24;40.30;28.70
66271;DHT22;53063;39.614;8.814;2023-08-21T11:33:13;39.90;29.00
66271;DHT22;53063;39.614;8.814;2023-08-21T11:35:40;38.30;30.10
66271;DHT22;53063;39.614;8.814;2023-08-21T11:38:06;38.50;30.40
66271;DHT22;53063;39.614;8.814;2023-08-21T11:40:39;39.20;29.70
66271;DHT22;53063;39.614;8.814;2023-08-21T11:43:04;39.40;29.70
66271;DHT22;53063;39.614;8.814;2023-08-21T11:45:32;39.00;29.50
66271;DHT22;53063;39.614;8.814;2023-08-21T11:47:58;39.60;29.40
66271;DHT22;53063;39.614;8.814;2023-08-21T11:50:25;39.50;30.10
66271;DHT22;53063;39.614;8.814;2023-08-21T11:52:52;39.60;29.30
66271;DHT22;53063;39.614;8.814;2023-08-21T11:55:18;39.80;29.50
66271;DHT22;53063;39.614;8.814;2023-08-21T11:57:48;40.30;29.90
66271;DHT22;53063;39.614;8.814;2023-08-21T12:00:16;40.10;30.20
66271;DHT22;53063;39.614;8.814;2023-08-21T12:02:57;39.50;29.40
66271;DHT22;53063;39.614;8.814;2023-08-21T12:05:23;39.70;28.90
66271;DHT22;53063;39.614;8.814;2023-08-21T12:07:49;39.30;29.70
66271;DHT22;53063;39.614;8.814;2023-08-21T12:10:25;40.00;29.30
66271;DHT22;53063;39.614;8.814;2023-08-21T12:12:51;39.50;29.20
66271;DHT22;53063;39.614;8.814;2023-08-21T12:15:17;39.00;29.50
66271;DHT22;53063;39.614;8.814;2023-08-21T12:17:43;39.60;31.60
66271;DHT22;53063;39.614;8.814;2023-08-21T12:20:09;40.00;29.30
66271;DHT22;53063;39.614;8.814;2023-08-21T12:22:39;39.10;30.40
66271;DHT22;53063;39.614;8.814;2023-08-21T12:25:06;38.90;30.50
66271;DHT22;53063;39.614;8.814;2023-08-21T12:27:32;37.80;30.80
66271;DHT22;53063;39.614;8.814;2023-08-21T12:29:58;37.60;31.40
66271;DHT22;53063;39.614;8.814;2023-08-21T12:32:24;37.70;31.60
66271;DHT22;53063;39.614;8.814;2023-08-21T12:34:50;38.30;31.00
66271;DHT22;53063;39.614;8.814;2023-08-21T12:37:18;38.50;31.00
66271;DHT22;53063;39.614;8.814;2023-08-21T12:39:44;39.10;30.90
66271;DHT22;53063;39.614;8.814;2023-08-21T12:42:10;39.50;30.40
66271;DHT22;53063;39.614;8.814;2023-08-21T12:44:36;39.10;30.50
66271;DHT22;53063;39.614;8.814;2023-08-21T12:47:01;38.80;30.80
66271;DHT22;53063;39.614;8.814;2023-08-21T12:49:28;38.80;30.40
66271;DHT22;53063;39.614;8.814;2023-08-21T12:51:54;38.60;30.90
66271;DHT22;53063;39.614;8.814;2023-08-21T12:54:21;38.50;30.80
66271;DHT22;53063;39.614;8.814;2023-08-21T12:56:47;38.60;31.00
66271;DHT22;53063;39.614;8.814;2023-08-21T12:59:15;38.20;31.30
66271;DHT22;53063;39.614;8.814;2023-08-21T13:01:41;38.40;31.00
66271;DHT22;53063;39.614;8.814;2023-08-21T13:04:07;38.60;30.70
66271;DHT22;53063;39.614;8.814;2023-08-21T13:06:33;38.60;30.60
66271;DHT22;53063;39.614;8.814;2023-08-21T13:08:59;38.60;30.80
66271;DHT22;53063;39.614;8.814;2023-08-21T13:11:25;38.40;31.50
66271;DHT22;53063;39.614;8.814;2023-08-21T13:13:51;38.00;32.20
66271;DHT22;53063;39.614;8.814;2023-08-21T13:16:17;38.20;32.00
66271;DHT22;53063;39.614;8.814;2023-08-21T13:18:43;37.90;32.20
66271;DHT22;53063;39.614;8.814;2023-08-21T13:21:09;38.30;32.10
66271;DHT22;53063;39.614;8.814;2023-08-21T13:23:34;38.40;32.00
66271;DHT22;53063;39.614;8.814;2023-08-21T13:26:01;38.50;31.70
66271;DHT22;53063;39.614;8.814;2023-08-21T13:28:27;38.20;32.00
66271;DHT22;53063;39.614;8.814;2023-08-21T13:30:53;38.10;32.20
66271;DHT22;53063;39.614;8.814;2023-08-21T13:33:19;38.40;31.80
66271;DHT22;53063;39.614;8.814;2023-08-21T13:35:45;38.50;31.80
66271;DHT22;53063;39.614;8.814;2023-08-21T13:38:14;38.10;32.40
66271;DHT22;53063;39.614;8.814;2023-08-21T13:40:40;38.10;32.50
66271;DHT22;53063;39.614;8.814;2023-08-21T13:43:07;37.30;33.70
66271;DHT22;53063;39.614;8.814;2023-08-21T13:45:35;37.60;33.50
66271;DHT22;53063;39.614;8.814;2023-08-21T13:48:01;37.70;33.00
66271;DHT22;53063;39.614;8.814;2023-08-21T13:50:27;37.70;33.20
66271;DHT22;53063;39.614;8.814;2023-08-21T13:52:52;37.30;33.50
66271;DHT22;53063;39.614;8.814;2023-08-21T13:55:18;37.10;33.70
66271;DHT22;53063;39.614;8.814;2023-08-21T13:57:44;37.00;33.60
66271;DHT22;53063;39.614;8.814;2023-08-21T14:00:11;37.10;34.30
66271;DHT22;53063;39.614;8.814;2023-08-21T14:02:40;37.10;34.20
66271;DHT22;53063;39.614;8.814;2023-08-21T14:05:07;37.00;34.20
66271;DHT22;53063;39.614;8.814;2023-08-21T14:07:34;36.90;34.10
66271;DHT22;53063;39.614;8.814;2023-08-21T14:10:01;36.80;34.10
66271;DHT22;53063;39.614;8.814;2023-08-21T14:12:30;36.70;34.40
66271;DHT22;53063;39.614;8.814;2023-08-21T14:14:57;36.70;34.50
66271;DHT22;53063;39.614;8.814;2023-08-21T14:17:24;36.70;34.50
66271;DHT22;53063;39.614;8.814;2023-08-21T14:19:49;36.50;34.10
66271;DHT22;53063;39.614;8.814;2023-08-21T14:22:16;36.60;34.10
66271;DHT22;53063;39.614;8.814;2023-08-21T14:24:41;36.50;34.20
66271;DHT22;53063;39.614;8.814;2023-08-21T14:27:07;36.50;34.30
66271;DHT22;53063;39.614;8.814;2023-08-21T14:29:33;36.30;34.30
66271;DHT22;53063;39.614;8.814;2023-08-21T14:31:59;36.30;34.50
66271;DHT22;53063;39.614;8.814;2023-08-21T14:34:26;36.20;34.70
66271;DHT22;53063;39.614;8.814;2023-08-21T14:36:53;36.20;35.30
66271;DHT22;53063;39.614;8.814;2023-08-21T14:39:22;36.10;35.30
66271;DHT22;53063;39.614;8.814;2023-08-21T14:41:57;36.10;35.20
66271;DHT22;53063;39.614;8.814;2023-08-21T14:44:23;36.10;35.10
66271;DHT22;53063;39.614;8.814;2023-08-21T14:46:51;36.20;35.50
66271;DHT22;53063;39.614;8.814;2023-08-21T14:49:17;36.50;35.00
66271;DHT22;53063;39.614;8.814;2023-08-21T14:51:43;36.60;34.90
66271;DHT22;53063;39.614;8.814;2023-08-21T14:54:09;37.00;35.80
66271;DHT22;53063;39.614;8.814;2023-08-21T14:56:35;36.70;36.50
66271;DHT22;53063;39.614;8.814;2023-08-21T14:59:01;36.20;37.00
66271;DHT22;53063;39.614;8.814;2023-08-21T15:01:27;36.00;37.80
66271;DHT22;53063;39.614;8.814;2023-08-21T15:03:53;36.40;37.30
66271;DHT22;53063;39.614;8.814;2023-08-21T15:06:19;36.10;37.40
66271;DHT22;53063;39.614;8.814;2023-08-21T15:08:45;36.50;36.90
66271;DHT22;53063;39.614;8.814;2023-08-21T15:11:11;36.30;36.90
66271;DHT22;53063;39.614;8.814;2023-08-21T15:13:37;36.10;36.50
66271;DHT22;53063;39.614;8.814;2023-08-21T15:16:04;35.80;37.30
66271;DHT22;53063;39.614;8.814;2023-08-21T15:18:30;35.70;37.70
66271;DHT22;53063;39.614;8.814;2023-08-21T15:20:56;35.60;37.70
66271;DHT22;53063;39.614;8.814;2023-08-21T15:23:22;35.40;38.00
66271;DHT22;53063;39.614;8.814;2023-08-21T15:25:48;35.40;38.00
66271;DHT22;53063;39.614;8.814;2023-08-21T15:28:14;35.70;37.90
66271;DHT22;53063;39.614;8.814;2023-08-21T15:30:40;35.90;37.50
66271;DHT22;53063;39.614;8.814;2023-08-21T15:33:06;35.90;37.20
66271;DHT22;53063;39.614;8.814;2023-08-21T15:35:31;35.80;36.90
66271;DHT22;53063;39.614;8.814;2023-08-21T15:37:57;35.80;37.00
66271;DHT22;53063;39.614;8.814;2023-08-21T15:40:23;35.70;37.50
66271;DHT22;53063;39.614;8.814;2023-08-21T15:42:49;35.80;38.00